sensor_id;sensor_type;location;lat;lon;timestamp;P1;durP1;ratioP1;P2;durP2;ratioP2
73869;SDS011;64924;42.140;24.762;2024-01-10T00:01:33;24.98;;;15.80;;
73869;SDS011;64924;42.140;24.762;2024-01-10T00:03:58;29.45;;;15.65;;
73869;SDS011;64924;42.140;24.762;2024-01-10T00:06:24;22.48;;;14.00;;
73869;SDS011;64924;42.140;24.762;2024-01-10T00:08:49;28.63;;;16.33;;
73869;SDS011;64924;42.140;24.762;2024-01-10T00:11:15;29.77;;;15.32;;
73869;SDS011;64924;42.140;24.762;2024-01-10T00:13:41;29.08;;;17.30;;
73869;SDS011;64924;42.140;24.762;2024-01-10T00:16:07;25.77;;;15.98;;
73869;SDS011;64924;42.140;24.762;2024-01-10T00:18:33;24.13;;;15.43;;
73869;SDS011;64924;42.140;24.762;2024-01-10T00:20:59;27.13;;;16.67;;
73869;SDS011;64924;42.140;24.762;2024-01-10T00:23:24;29.38;;;16.67;;
73869;SDS011;64924;42.140;24.762;2024-01-10T00:25:51;27.52;;;16.33;;
73869;SDS011;64924;42.140;24.762;2024-01-10T00:28:16;27.52;;;16.05;;
73869;SDS011;64924;42.140;24.762;2024-01-10T00:30:43;29.05;;;17.00;;
73869;SDS011;64924;42.140;24.762;2024-01-10T00:33:09;27.27;;;16.42;;
73869;SDS011;64924;42.140;24.762;2024-01-10T00:35:36;24.60;;;15.10;;
73869;SDS011;64924;42.140;24.762;2024-01-10T00:38:02;27.20;;;16.50;;
73869;SDS011;64924;42.140;24.762;2024-01-10T00:40:27;28.83;;;16.00;;
73869;SDS011;64924;42.140;24.762;2024-01-10T00:42:53;26.27;;;16.10;;
73869;SDS011;64924;42.140;24.762;2024-01-10T00:45:18;29.50;;;16.85;;
73869;SDS011;64924;42.140;24.762;2024-01-10T00:47:44;29.25;;;17.60;;
73869;SDS011;64924;42.140;24.762;2024-01-10T00:50:09;30.00;;;17.17;;
73869;SDS011;64924;42.140;24.762;2024-01-10T00:52:35;29.55;;;17.60;;
73869;SDS011;64924;42.140;24.762;2024-01-10T00:55:01;29.35;;;17.73;;
73869;SDS011;64924;42.140;24.762;2024-01-10T00:57:26;30.00;;;18.38;;
73869;SDS011;64924;42.140;24.762;2024-01-10T00:59:52;25.98;;;15.73;;
73869;SDS011;64924;42.140;24.762;2024-01-10T01:02:17;25.75;;;14.68;;
73869;SDS011;64924;42.140;24.762;2024-01-10T01:04:43;26.30;;;16.38;;
73869;SDS011;64924;42.140;24.762;2024-01-10T01:07:08;29.17;;;15.90;;
73869;SDS011;64924;42.140;24.762;2024-01-10T01:09:34;25.17;;;15.13;;
73869;SDS011;64924;42.140;24.762;2024-01-10T01:12:00;26.55;;;14.73;;
73869;SDS011;64924;42.140;24.762;2024-01-10T01:14:25;25.27;;;15.60;;
73869;SDS011;64924;42.140;24.762;2024-01-10T01:16:51;26.13;;;16.60;;
73869;SDS011;64924;42.140;24.762;2024-01-10T01:19:17;27.23;;;16.38;;
73869;SDS011;64924;42.140;24.762;2024-01-10T01:21:42;25.60;;;15.02;;
73869;SDS011;64924;42.140;24.762;2024-01-10T01:24:08;25.33;;;14.90;;
73869;SDS011;64924;42.140;24.762;2024-01-10T01:26:34;29.38;;;17.20;;
73869;SDS011;64924;42.140;24.762;2024-01-10T01:28:59;24.90;;;15.50;;
73869;SDS011;64924;42.140;24.762;2024-01-10T01:31:25;30.25;;;17.35;;
73869;SDS011;64924;42.140;24.762;2024-01-10T01:33:50;26.75;;;15.50;;
73869;SDS011;64924;42.140;24.762;2024-01-10T01:36:16;30.38;;;16.13;;
73869;SDS011;64924;42.140;24.762;2024-01-10T01:38:41;27.23;;;15.02;;
73869;SDS011;64924;42.140;24.762;2024-01-10T01:41:07;26.00;;;15.75;;
73869;SDS011;64924;42.140;24.762;2024-01-10T01:43:32;29.27;;;17.00;;
73869;SDS011;64924;42.140;24.762;2024-01-10T01:45:58;26.88;;;16.58;;
73869;SDS011;64924;42.140;24.762;2024-01-10T01:48:24;27.63;;;17.05;;
73869;SDS011;64924;42.140;24.762;2024-01-10T01:51:00;27.65;;;17.23;;
73869;SDS011;64924;42.140;24.762;2024-01-10T01:53:28;31.98;;;18.17;;
73869;SDS011;64924;42.140;24.762;2024-01-10T01:55:55;36.22;;;17.50;;
73869;SDS011;64924;42.140;24.762;2024-01-10T01:58:22;34.03;;;18.23;;
73869;SDS011;64924;42.140;24.762;2024-01-10T02:00:48;34.13;;;19.20;;
73869;SDS011;64924;42.140;24.762;2024-01-10T02:03:14;30.92;;;17.55;;
73869;SDS011;64924;42.140;24.762;2024-01-10T02:05:39;33.13;;;19.42;;
73869;SDS011;64924;42.140;24.762;2024-01-10T02:08:05;34.92;;;19.27;;
73869;SDS011;64924;42.140;24.762;2024-01-10T02:10:31;30.05;;;19.08;;
73869;SDS011;64924;42.140;24.762;2024-01-10T02:12:57;35.28;;;19.35;;
73869;SDS011;64924;42.140;24.762;2024-01-10T02:15:23;35.45;;;20.17;;
73869;SDS011;64924;42.140;24.762;2024-01-10T02:17:49;39.67;;;20.73;;
73869;SDS011;64924;42.140;24.762;2024-01-10T02:20:15;33.25;;;20.55;;
73869;SDS011;64924;42.140;24.762;2024-01-10T02:22:46;31.90;;;19.75;;
73869;SDS011;64924;42.140;24.762;2024-01-10T02:25:12;35.33;;;19.02;;
73869;SDS011;64924;42.140;24.762;2024-01-10T02:27:39;32.22;;;19.20;;
73869;SDS011;64924;42.140;24.762;2024-01-10T02:30:05;33.45;;;19.17;;
73869;SDS011;64924;42.140;24.762;2024-01-10T02:32:32;28.67;;;17.40;;
73869;SDS011;64924;42.140;24.762;2024-01-10T02:34:58;30.48;;;17.23;;
73869;SDS011;64924;42.140;24.762;2024-01-10T02:37:24;26.65;;;15.52;;
73869;SDS011;64924;42.140;24.762;2024-01-10T02:39:49;27.00;;;16.73;;
73869;SDS011;64924;42.140;24.762;2024-01-10T02:42:15;24.48;;;14.93;;
73869;SDS011;64924;42.140;24.762;2024-01-10T02:44:41;26.58;;;15.57;;
73869;SDS011;64924;42.140;24.762;2024-01-10T02:47:07;27.00;;;15.48;;
73869;SDS011;64924;42.140;24.762;2024-01-10T02:49:33;25.75;;;16.52;;
73869;SDS011;64924;42.140;24.762;2024-01-10T02:51:59;28.23;;;16.02;;
73869;SDS011;64924;42.140;24.762;2024-01-10T02:54:24;30.13;;;15.05;;
73869;SDS011;64924;42.140;24.762;2024-01-10T02:56:50;28.40;;;15.50;;
73869;SDS011;64924;42.140;24.762;2024-01-10T02:59:16;25.25;;;15.98;;
73869;SDS011;64924;42.140;24.762;2024-01-10T03:01:42;26.05;;;15.35;;
73869;SDS011;64924;42.140;24.762;2024-01-10T03:04:08;28.15;;;16.60;;
73869;SDS011;64924;42.140;24.762;2024-01-10T03:06:33;27.10;;;16.98;;
73869;SDS011;64924;42.140;24.762;2024-01-10T03:08:58;29.73;;;17.17;;
73869;SDS011;64924;42.140;24.762;2024-01-10T03:11:24;25.70;;;15.88;;
73869;SDS011;64924;42.140;24.762;2024-01-10T03:13:52;28.73;;;15.25;;
73869;SDS011;64924;42.140;24.762;2024-01-10T03:16:26;26.38;;;16.50;;
73869;SDS011;64924;42.140;24.762;2024-01-10T03:18:51;26.88;;;14.55;;
73869;SDS011;64924;42.140;24.762;2024-01-10T03:21:17;28.08;;;16.05;;
73869;SDS011;64924;42.140;24.762;2024-01-10T03:23:48;29.02;;;16.50;;
73869;SDS011;64924;42.140;24.762;2024-01-10T03:26:13;22.55;;;14.13;;
73869;SDS011;64924;42.140;24.762;2024-01-10T03:28:39;27.88;;;15.43;;
73869;SDS011;64924;42.140;24.762;2024-01-10T03:31:04;29.52;;;14.00;;
73869;SDS011;64924;42.140;24.762;2024-01-10T03:33:30;26.05;;;15.27;;
73869;SDS011;64924;42.140;24.762;2024-01-10T03:35:55;24.88;;;14.75;;
73869;SDS011;64924;42.140;24.762;2024-01-10T03:38:21;29.10;;;15.05;;
73869;SDS011;64924;42.140;24.762;2024-01-10T03:40:46;28.25;;;16.23;;
73869;SDS011;64924;42.140;24.762;2024-01-10T03:43:12;26.50;;;15.63;;
73869;SDS011;64924;42.140;24.762;2024-01-10T03:45:37;25.10;;;14.68;;
73869;SDS011;64924;42.140;24.762;2024-01-10T03:48:03;28.38;;;15.73;;
73869;SDS011;64924;42.140;24.762;2024-01-10T03:50:28;24.98;;;15.40;;
73869;SDS011;64924;42.140;24.762;2024-01-10T03:52:54;29.85;;;15.32;;
73869;SDS011;64924;42.140;24.762;2024-01-10T03:55:19;30.42;;;16.45;;
73869;SDS011;64924;42.140;24.762;2024-01-10T03:57:45;26.23;;;15.15;;
73869;SDS011;64924;42.140;24.762;2024-01-10T04:00:10;26.67;;;15.35;;
73869;SDS011;64924;42.140;24.762;2024-01-10T04:02:37;29.58;;;15.90;;
73869;SDS011;64924;42.140;24.762;2024-01-10T04:05:06;28.45;;;15.18;;
73869;SDS011;64924;42.140;24.762;2024-01-10T04:07:33;25.00;;;15.07;;
73869;SDS011;64924;42.140;24.762;2024-01-10T04:09:58;24.05;;;14.65;;
73869;SDS011;64924;42.140;24.762;2024-01-10T04:12:24;30.30;;;14.32;;
73869;SDS011;64924;42.140;24.762;2024-01-10T04:14:49;30.77;;;16.95;;
73869;SDS011;64924;42.140;24.762;2024-01-10T04:17:15;26.83;;;15.02;;
73869;SDS011;64924;42.140;24.762;2024-01-10T04:19:40;30.52;;;15.68;;
73869;SDS011;64924;42.140;24.762;2024-01-10T04:22:06;30.83;;;15.82;;
73869;SDS011;64924;42.140;24.762;2024-01-10T04:24:31;33.42;;;16.75;;
73869;SDS011;64924;42.140;24.762;2024-01-10T04:26:57;32.15;;;16.60;;
73869;SDS011;64924;42.140;24.762;2024-01-10T04:29:22;31.10;;;16.30;;
73869;SDS011;64924;42.140;24.762;2024-01-10T04:31:47;25.85;;;15.38;;
73869;SDS011;64924;42.140;24.762;2024-01-10T04:34:13;25.45;;;15.98;;
73869;SDS011;64924;42.140;24.762;2024-01-10T04:36:39;26.17;;;15.35;;
73869;SDS011;64924;42.140;24.762;2024-01-10T04:39:04;29.25;;;15.38;;
73869;SDS011;64924;42.140;24.762;2024-01-10T04:41:30;27.77;;;15.18;;
73869;SDS011;64924;42.140;24.762;2024-01-10T04:43:55;28.48;;;16.95;;
73869;SDS011;64924;42.140;24.762;2024-01-10T04:46:21;29.60;;;16.30;;
73869;SDS011;64924;42.140;24.762;2024-01-10T04:48:46;28.75;;;16.08;;
73869;SDS011;64924;42.140;24.762;2024-01-10T04:51:12;27.38;;;15.77;;
73869;SDS011;64924;42.140;24.762;2024-01-10T04:53:38;30.08;;;15.75;;
73869;SDS011;64924;42.140;24.762;2024-01-10T04:56:03;26.80;;;15.68;;
73869;SDS011;64924;42.140;24.762;2024-01-10T04:58:29;28.25;;;15.48;;
73869;SDS011;64924;42.140;24.762;2024-01-10T05:00:55;26.88;;;15.15;;
73869;SDS011;64924;42.140;24.762;2024-01-10T05:03:20;26.98;;;15.60;;
73869;SDS011;64924;42.140;24.762;2024-01-10T05:05:46;33.47;;;17.38;;
73869;SDS011;64924;42.140;24.762;2024-01-10T05:08:11;28.33;;;16.20;;
73869;SDS011;64924;42.140;24.762;2024-01-10T05:10:37;29.25;;;15.50;;
73869;SDS011;64924;42.140;24.762;2024-01-10T05:13:02;33.47;;;17.02;;
73869;SDS011;64924;42.140;24.762;2024-01-10T05:15:28;28.75;;;15.80;;
73869;SDS011;64924;42.140;24.762;2024-01-10T05:17:53;30.92;;;16.20;;
73869;SDS011;64924;42.140;24.762;2024-01-10T05:20:19;33.78;;;16.20;;
73869;SDS011;64924;42.140;24.762;2024-01-10T05:22:44;34.55;;;16.58;;
73869;SDS011;64924;42.140;24.762;2024-01-10T05:25:10;31.23;;;16.50;;
73869;SDS011;64924;42.140;24.762;2024-01-10T05:27:35;30.83;;;17.30;;
73869;SDS011;64924;42.140;24.762;2024-01-10T05:30:00;33.13;;;17.38;;
73869;SDS011;64924;42.140;24.762;2024-01-10T05:32:26;32.40;;;16.92;;
73869;SDS011;64924;42.140;24.762;2024-01-10T05:34:52;34.35;;;18.52;;
73869;SDS011;64924;42.140;24.762;2024-01-10T05:37:19;39.80;;;19.83;;
73869;SDS011;64924;42.140;24.762;2024-01-10T05:39:44;39.42;;;19.98;;
73869;SDS011;64924;42.140;24.762;2024-01-10T05:42:10;34.92;;;20.30;;
73869;SDS011;64924;42.140;24.762;2024-01-10T05:44:36;34.17;;;19.42;;
73869;SDS011;64924;42.140;24.762;2024-01-10T05:47:01;33.38;;;19.27;;
73869;SDS011;64924;42.140;24.762;2024-01-10T05:49:27;38.55;;;19.45;;
73869;SDS011;64924;42.140;24.762;2024-01-10T05:51:53;37.38;;;20.80;;
73869;SDS011;64924;42.140;24.762;2024-01-10T05:54:19;36.67;;;19.38;;
73869;SDS011;64924;42.140;24.762;2024-01-10T05:56:44;43.65;;;21.15;;
73869;SDS011;64924;42.140;24.762;2024-01-10T05:59:10;42.85;;;20.70;;
73869;SDS011;64924;42.140;24.762;2024-01-10T06:01:36;37.95;;;21.48;;
73869;SDS011;64924;42.140;24.762;2024-01-10T06:04:05;37.20;;;21.10;;
73869;SDS011;64924;42.140;24.762;2024-01-10T06:06:31;37.15;;;19.95;;
73869;SDS011;64924;42.140;24.762;2024-01-10T06:08:57;34.97;;;20.42;;
73869;SDS011;64924;42.140;24.762;2024-01-10T06:11:23;32.50;;;16.75;;
73869;SDS011;64924;42.140;24.762;2024-01-10T06:13:48;28.25;;;16.58;;
73869;SDS011;64924;42.140;24.762;2024-01-10T06:16:14;28.95;;;15.27;;
73869;SDS011;64924;42.140;24.762;2024-01-10T06:18:39;28.40;;;14.70;;
73869;SDS011;64924;42.140;24.762;2024-01-10T06:21:05;27.23;;;14.77;;
73869;SDS011;64924;42.140;24.762;2024-01-10T06:23:30;42.33;;;19.92;;
73869;SDS011;64924;42.140;24.762;2024-01-10T06:25:56;44.75;;;23.35;;
73869;SDS011;64924;42.140;24.762;2024-01-10T06:28:22;43.17;;;23.85;;
73869;SDS011;64924;42.140;24.762;2024-01-10T06:30:48;80.82;;;37.97;;
73869;SDS011;64924;42.140;24.762;2024-01-10T06:33:14;57.88;;;30.80;;
73869;SDS011;64924;42.140;24.762;2024-01-10T06:35:41;54.13;;;29.20;;
73869;SDS011;64924;42.140;24.762;2024-01-10T06:38:10;48.72;;;26.00;;
73869;SDS011;64924;42.140;24.762;2024-01-10T06:40:36;38.35;;;23.38;;
73869;SDS011;64924;42.140;24.762;2024-01-10T06:43:02;40.17;;;21.77;;
73869;SDS011;64924;42.140;24.762;2024-01-10T06:45:28;38.95;;;20.45;;
73869;SDS011;64924;42.140;24.762;2024-01-10T06:47:54;37.38;;;20.70;;
73869;SDS011;64924;42.140;24.762;2024-01-10T06:50:20;35.25;;;19.60;;
73869;SDS011;64924;42.140;24.762;2024-01-10T06:52:46;37.95;;;19.25;;
73869;SDS011;64924;42.140;24.762;2024-01-10T06:55:13;34.10;;;19.35;;
73869;SDS011;64924;42.140;24.762;2024-01-10T06:57:38;36.30;;;19.20;;
73869;SDS011;64924;42.140;24.762;2024-01-10T07:00:04;39.28;;;20.10;;
73869;SDS011;64924;42.140;24.762;2024-01-10T07:02:32;41.53;;;20.17;;
73869;SDS011;64924;42.140;24.762;2024-01-10T07:05:00;40.08;;;21.60;;
73869;SDS011;64924;42.140;24.762;2024-01-10T07:07:26;40.97;;;23.58;;
73869;SDS011;64924;42.140;24.762;2024-01-10T07:09:51;37.03;;;20.83;;
73869;SDS011;64924;42.140;24.762;2024-01-10T07:12:17;41.40;;;21.77;;
73869;SDS011;64924;42.140;24.762;2024-01-10T07:14:42;42.00;;;21.40;;
73869;SDS011;64924;42.140;24.762;2024-01-10T07:17:08;37.22;;;20.92;;
73869;SDS011;64924;42.140;24.762;2024-01-10T07:19:33;36.58;;;20.73;;
73869;SDS011;64924;42.140;24.762;2024-01-10T07:21:59;36.90;;;20.40;;
73869;SDS011;64924;42.140;24.762;2024-01-10T07:24:25;34.78;;;19.90;;
73869;SDS011;64924;42.140;24.762;2024-01-10T07:26:51;35.95;;;21.23;;
73869;SDS011;64924;42.140;24.762;2024-01-10T07:29:16;34.80;;;19.27;;
73869;SDS011;64924;42.140;24.762;2024-01-10T07:31:42;40.45;;;23.85;;
73869;SDS011;64924;42.140;24.762;2024-01-10T07:34:08;39.80;;;21.13;;
73869;SDS011;64924;42.140;24.762;2024-01-10T07:36:33;44.80;;;21.52;;
73869;SDS011;64924;42.140;24.762;2024-01-10T07:39:05;38.75;;;22.17;;
73869;SDS011;64924;42.140;24.762;2024-01-10T07:41:31;39.63;;;21.95;;
73869;SDS011;64924;42.140;24.762;2024-01-10T07:43:57;41.50;;;21.13;;
73869;SDS011;64924;42.140;24.762;2024-01-10T07:46:23;30.73;;;19.75;;
73869;SDS011;64924;42.140;24.762;2024-01-10T07:48:48;38.28;;;20.48;;
73869;SDS011;64924;42.140;24.762;2024-01-10T07:51:14;38.92;;;20.90;;
73869;SDS011;64924;42.140;24.762;2024-01-10T07:53:40;35.40;;;21.05;;
73869;SDS011;64924;42.140;24.762;2024-01-10T07:56:05;36.63;;;21.30;;
73869;SDS011;64924;42.140;24.762;2024-01-10T07:58:31;33.55;;;19.73;;
73869;SDS011;64924;42.140;24.762;2024-01-10T08:00:56;32.97;;;19.23;;
73869;SDS011;64924;42.140;24.762;2024-01-10T08:03:22;33.80;;;19.42;;
73869;SDS011;64924;42.140;24.762;2024-01-10T08:05:47;40.72;;;21.23;;
73869;SDS011;64924;42.140;24.762;2024-01-10T08:08:13;35.80;;;20.65;;
73869;SDS011;64924;42.140;24.762;2024-01-10T08:10:39;35.35;;;19.77;;
73869;SDS011;64924;42.140;24.762;2024-01-10T08:13:05;37.15;;;20.48;;
73869;SDS011;64924;42.140;24.762;2024-01-10T08:15:31;41.58;;;23.05;;
73869;SDS011;64924;42.140;24.762;2024-01-10T08:17:59;59.92;;;33.42;;
73869;SDS011;64924;42.140;24.762;2024-01-10T08:20:28;59.17;;;35.50;;
73869;SDS011;64924;42.140;24.762;2024-01-10T08:22:53;63.45;;;33.50;;
73869;SDS011;64924;42.140;24.762;2024-01-10T08:25:19;55.40;;;29.67;;
73869;SDS011;64924;42.140;24.762;2024-01-10T08:27:44;51.88;;;28.38;;
73869;SDS011;64924;42.140;24.762;2024-01-10T08:30:10;54.78;;;28.02;;
73869;SDS011;64924;42.140;24.762;2024-01-10T08:32:36;53.58;;;28.58;;
73869;SDS011;64924;42.140;24.762;2024-01-10T08:35:02;54.55;;;28.27;;
73869;SDS011;64924;42.140;24.762;2024-01-10T08:37:30;57.15;;;26.60;;
73869;SDS011;64924;42.140;24.762;2024-01-10T08:39:55;55.90;;;28.67;;
73869;SDS011;64924;42.140;24.762;2024-01-10T08:42:22;44.95;;;26.90;;
73869;SDS011;64924;42.140;24.762;2024-01-10T08:44:47;54.03;;;27.25;;
73869;SDS011;64924;42.140;24.762;2024-01-10T08:47:13;54.85;;;26.58;;
73869;SDS011;64924;42.140;24.762;2024-01-10T08:49:39;49.78;;;24.83;;
73869;SDS011;64924;42.140;24.762;2024-01-10T08:52:04;43.55;;;25.30;;
73869;SDS011;64924;42.140;24.762;2024-01-10T08:54:30;46.38;;;26.90;;
73869;SDS011;64924;42.140;24.762;2024-01-10T08:56:56;50.30;;;25.55;;
73869;SDS011;64924;42.140;24.762;2024-01-10T08:59:21;45.90;;;27.45;;
73869;SDS011;64924;42.140;24.762;2024-01-10T09:01:47;43.85;;;25.63;;
73869;SDS011;64924;42.140;24.762;2024-01-10T09:04:12;53.85;;;26.55;;
73869;SDS011;64924;42.140;24.762;2024-01-10T09:06:38;44.92;;;25.27;;
73869;SDS011;64924;42.140;24.762;2024-01-10T09:09:03;42.08;;;24.83;;
73869;SDS011;64924;42.140;24.762;2024-01-10T09:11:29;37.88;;;22.08;;
73869;SDS011;64924;42.140;24.762;2024-01-10T09:13:54;39.60;;;20.50;;
73869;SDS011;64924;42.140;24.762;2024-01-10T09:16:20;35.78;;;20.70;;
73869;SDS011;64924;42.140;24.762;2024-01-10T09:18:45;46.15;;;22.90;;
73869;SDS011;64924;42.140;24.762;2024-01-10T09:21:11;46.22;;;22.95;;
73869;SDS011;64924;42.140;24.762;2024-01-10T09:23:37;41.95;;;22.52;;
73869;SDS011;64924;42.140;24.762;2024-01-10T09:26:03;39.53;;;22.33;;
73869;SDS011;64924;42.140;24.762;2024-01-10T09:28:28;42.05;;;22.98;;
73869;SDS011;64924;42.140;24.762;2024-01-10T09:30:54;40.60;;;22.27;;
73869;SDS011;64924;42.140;24.762;2024-01-10T09:33:20;40.95;;;23.80;;
73869;SDS011;64924;42.140;24.762;2024-01-10T09:35:47;46.95;;;23.38;;
73869;SDS011;64924;42.140;24.762;2024-01-10T09:38:13;42.22;;;24.17;;
73869;SDS011;64924;42.140;24.762;2024-01-10T09:40:39;52.47;;;26.65;;
73869;SDS011;64924;42.140;24.762;2024-01-10T09:43:05;49.17;;;25.95;;
73869;SDS011;64924;42.140;24.762;2024-01-10T09:45:34;42.15;;;23.27;;
73869;SDS011;64924;42.140;24.762;2024-01-10T09:48:00;36.72;;;19.58;;
73869;SDS011;64924;42.140;24.762;2024-01-10T09:50:26;38.80;;;19.42;;
73869;SDS011;64924;42.140;24.762;2024-01-10T09:53:14;33.70;;;18.85;;
73869;SDS011;64924;42.140;24.762;2024-01-10T09:55:46;31.25;;;18.92;;
73869;SDS011;64924;42.140;24.762;2024-01-10T09:58:12;32.05;;;17.92;;
73869;SDS011;64924;42.140;24.762;2024-01-10T10:00:37;32.83;;;20.63;;
73869;SDS011;64924;42.140;24.762;2024-01-10T10:03:07;30.27;;;18.45;;
73869;SDS011;64924;42.140;24.762;2024-01-10T10:05:36;29.67;;;16.90;;
73869;SDS011;64924;42.140;24.762;2024-01-10T10:08:02;28.27;;;16.88;;
73869;SDS011;64924;42.140;24.762;2024-01-10T10:10:28;26.10;;;16.02;;
73869;SDS011;64924;42.140;24.762;2024-01-10T10:12:54;25.45;;;16.42;;
73869;SDS011;64924;42.140;24.762;2024-01-10T10:15:20;27.00;;;16.77;;
73869;SDS011;64924;42.140;24.762;2024-01-10T10:17:48;27.38;;;17.30;;
73869;SDS011;64924;42.140;24.762;2024-01-10T10:20:21;27.85;;;16.13;;
73869;SDS011;64924;42.140;24.762;2024-01-10T10:22:58;23.25;;;13.70;;
73869;SDS011;64924;42.140;24.762;2024-01-10T10:25:26;24.67;;;13.43;;
73869;SDS011;64924;42.140;24.762;2024-01-10T10:27:58;22.38;;;11.93;;
73869;SDS011;64924;42.140;24.762;2024-01-10T10:30:25;21.23;;;12.23;;
73869;SDS011;64924;42.140;24.762;2024-01-10T10:32:51;20.55;;;11.90;;
73869;SDS011;64924;42.140;24.762;2024-01-10T10:35:18;23.45;;;12.40;;
73869;SDS011;64924;42.140;24.762;2024-01-10T10:37:45;24.90;;;12.35;;
73869;SDS011;64924;42.140;24.762;2024-01-10T10:40:11;28.40;;;12.68;;
73869;SDS011;64924;42.140;24.762;2024-01-10T10:42:38;22.25;;;12.13;;
73869;SDS011;64924;42.140;24.762;2024-01-10T10:45:11;21.77;;;11.88;;
73869;SDS011;64924;42.140;24.762;2024-01-10T10:47:45;25.77;;;14.40;;
73869;SDS011;64924;42.140;24.762;2024-01-10T10:50:19;21.00;;;11.73;;
73869;SDS011;64924;42.140;24.762;2024-01-10T10:52:47;24.67;;;13.73;;
73869;SDS011;64924;42.140;24.762;2024-01-10T10:55:14;23.48;;;13.40;;
73869;SDS011;64924;42.140;24.762;2024-01-10T10:57:42;14.68;;;9.15;;
73869;SDS011;64924;42.140;24.762;2024-01-10T11:00:12;17.33;;;9.00;;
73869;SDS011;64924;42.140;24.762;2024-01-10T11:02:40;17.10;;;10.33;;
73869;SDS011;64924;42.140;24.762;2024-01-10T11:05:06;20.55;;;10.02;;
73869;SDS011;64924;42.140;24.762;2024-01-10T11:07:40;16.70;;;9.13;;
73869;SDS011;64924;42.140;24.762;2024-01-10T11:10:11;15.02;;;9.20;;
73869;SDS011;64924;42.140;24.762;2024-01-10T11:13:00;15.85;;;9.98;;
73869;SDS011;64924;42.140;24.762;2024-01-10T11:19:10;16.98;;;10.25;;
73869;SDS011;64924;42.140;24.762;2024-01-10T11:24:12;13.23;;;7.93;;
73869;SDS011;64924;42.140;24.762;2024-01-10T11:26:38;15.45;;;9.80;;
73869;SDS011;64924;42.140;24.762;2024-01-10T11:29:04;12.27;;;8.38;;
73869;SDS011;64924;42.140;24.762;2024-01-10T11:31:31;17.63;;;8.60;;
73869;SDS011;64924;42.140;24.762;2024-01-10T11:33:58;16.35;;;9.57;;
73869;SDS011;64924;42.140;24.762;2024-01-10T11:36:27;15.57;;;8.38;;
73869;SDS011;64924;42.140;24.762;2024-01-10T11:38:54;21.25;;;10.65;;
73869;SDS011;64924;42.140;24.762;2024-01-10T11:46:55;18.73;;;9.57;;
73869;SDS011;64924;42.140;24.762;2024-01-10T11:49:23;24.90;;;12.35;;
73869;SDS011;64924;42.140;24.762;2024-01-10T11:51:53;17.90;;;10.65;;
73869;SDS011;64924;42.140;24.762;2024-01-10T11:57:10;16.60;;;10.02;;
73869;SDS011;64924;42.140;24.762;2024-01-10T11:59:37;16.15;;;9.70;;
73869;SDS011;64924;42.140;24.762;2024-01-10T12:02:03;16.77;;;9.57;;
73869;SDS011;64924;42.140;24.762;2024-01-10T12:04:31;15.60;;;9.43;;
73869;SDS011;64924;42.140;24.762;2024-01-10T12:06:57;18.80;;;9.93;;
73869;SDS011;64924;42.140;24.762;2024-01-10T12:09:23;16.85;;;10.90;;
73869;SDS011;64924;42.140;24.762;2024-01-10T12:11:49;16.15;;;10.15;;
73869;SDS011;64924;42.140;24.762;2024-01-10T12:14:15;22.75;;;11.52;;
73869;SDS011;64924;42.140;24.762;2024-01-10T12:16:42;21.85;;;11.13;;
73869;SDS011;64924;42.140;24.762;2024-01-10T12:19:08;23.10;;;12.27;;
73869;SDS011;64924;42.140;24.762;2024-01-10T12:21:33;19.35;;;11.32;;
73869;SDS011;64924;42.140;24.762;2024-01-10T12:23:59;22.67;;;11.52;;
73869;SDS011;64924;42.140;24.762;2024-01-10T12:26:24;25.52;;;14.95;;
73869;SDS011;64924;42.140;24.762;2024-01-10T12:28:57;27.90;;;14.85;;
73869;SDS011;64924;42.140;24.762;2024-01-10T12:31:27;25.15;;;11.60;;
73869;SDS011;64924;42.140;24.762;2024-01-10T12:33:56;20.48;;;11.93;;
73869;SDS011;64924;42.140;24.762;2024-01-10T12:36:22;21.35;;;12.77;;
73869;SDS011;64924;42.140;24.762;2024-01-10T12:38:47;23.48;;;12.15;;
73869;SDS011;64924;42.140;24.762;2024-01-10T12:41:14;19.10;;;11.27;;
73869;SDS011;64924;42.140;24.762;2024-01-10T12:43:40;18.08;;;11.18;;
73869;SDS011;64924;42.140;24.762;2024-01-10T12:46:07;26.33;;;14.38;;
73869;SDS011;64924;42.140;24.762;2024-01-10T12:48:36;21.77;;;12.80;;
73869;SDS011;64924;42.140;24.762;2024-01-10T12:51:04;23.33;;;11.27;;
73869;SDS011;64924;42.140;24.762;2024-01-10T12:53:42;24.37;;;13.33;;
73869;SDS011;64924;42.140;24.762;2024-01-10T12:56:09;21.55;;;11.25;;
73869;SDS011;64924;42.140;24.762;2024-01-10T12:58:39;25.80;;;12.73;;
73869;SDS011;64924;42.140;24.762;2024-01-10T13:01:09;24.70;;;11.95;;
73869;SDS011;64924;42.140;24.762;2024-01-10T13:03:35;24.60;;;11.87;;
73869;SDS011;64924;42.140;24.762;2024-01-10T13:06:01;17.63;;;11.57;;
73869;SDS011;64924;42.140;24.762;2024-01-10T13:08:26;21.08;;;12.38;;
73869;SDS011;64924;42.140;24.762;2024-01-10T13:10:52;20.30;;;11.18;;
73869;SDS011;64924;42.140;24.762;2024-01-10T13:13:18;19.52;;;11.63;;
73869;SDS011;64924;42.140;24.762;2024-01-10T13:15:46;26.27;;;11.73;;
73869;SDS011;64924;42.140;24.762;2024-01-10T13:18:12;25.15;;;11.60;;
73869;SDS011;64924;42.140;24.762;2024-01-10T13:20:39;20.05;;;11.60;;
73869;SDS011;64924;42.140;24.762;2024-01-10T13:23:05;29.05;;;15.90;;
73869;SDS011;64924;42.140;24.762;2024-01-10T13:25:31;34.15;;;17.65;;
73869;SDS011;64924;42.140;24.762;2024-01-10T13:27:56;39.05;;;18.35;;
73869;SDS011;64924;42.140;24.762;2024-01-10T13:30:22;39.10;;;19.13;;
73869;SDS011;64924;42.140;24.762;2024-01-10T13:32:48;36.67;;;18.08;;
73869;SDS011;64924;42.140;24.762;2024-01-10T13:35:14;32.17;;;17.33;;
73869;SDS011;64924;42.140;24.762;2024-01-10T13:37:41;38.05;;;19.48;;
73869;SDS011;64924;42.140;24.762;2024-01-10T13:40:07;36.08;;;20.70;;
73869;SDS011;64924;42.140;24.762;2024-01-10T13:42:34;44.25;;;23.05;;
73869;SDS011;64924;42.140;24.762;2024-01-10T13:45:06;36.13;;;18.83;;
73869;SDS011;64924;42.140;24.762;2024-01-10T13:47:33;40.58;;;20.85;;
73869;SDS011;64924;42.140;24.762;2024-01-10T13:49:59;38.10;;;21.30;;
73869;SDS011;64924;42.140;24.762;2024-01-10T13:52:25;43.25;;;21.38;;
73869;SDS011;64924;42.140;24.762;2024-01-10T13:54:51;35.75;;;21.77;;
73869;SDS011;64924;42.140;24.762;2024-01-10T13:57:17;37.67;;;21.70;;
73869;SDS011;64924;42.140;24.762;2024-01-10T13:59:43;38.92;;;21.75;;
73869;SDS011;64924;42.140;24.762;2024-01-10T14:02:09;39.97;;;23.45;;
73869;SDS011;64924;42.140;24.762;2024-01-10T14:04:35;40.88;;;23.65;;
73869;SDS011;64924;42.140;24.762;2024-01-10T14:07:01;44.50;;;22.73;;
73869;SDS011;64924;42.140;24.762;2024-01-10T14:09:28;42.72;;;23.15;;
73869;SDS011;64924;42.140;24.762;2024-01-10T14:11:54;35.90;;;20.80;;
73869;SDS011;64924;42.140;24.762;2024-01-10T14:14:20;39.45;;;21.75;;
73869;SDS011;64924;42.140;24.762;2024-01-10T14:16:45;41.42;;;21.10;;
73869;SDS011;64924;42.140;24.762;2024-01-10T14:19:11;38.22;;;21.38;;